sensor_id;sensor_type;location;lat;lon;timestamp;P1;durP1;ratioP1;P2;durP2;ratioP2
51523;SDS011;37610;51.790;21.590;2023-02-01T00:03:37;12.10;;;7.10;;
51523;SDS011;37610;51.790;21.590;2023-02-01T00:07:39;13.20;;;6.70;;
51523;SDS011;37610;51.790;21.590;2023-02-01T00:11:40;10.40;;;5.80;;
51523;SDS011;37610;51.790;21.590;2023-02-01T00:15:42;9.50;;;5.80;;
51523;SDS011;37610;51.790;21.590;2023-02-01T00:19:43;9.90;;;6.30;;
51523;SDS011;37610;51.790;21.590;2023-02-01T00:23:45;14.20;;;6.70;;
51523;SDS011;37610;51.790;21.590;2023-02-01T00:27:49;10.10;;;6.10;;
51523;SDS011;37610;51.790;21.590;2023-02-01T00:31:51;9.20;;;5.60;;
51523;SDS011;37610;51.790;21.590;2023-02-01T00:36:00;8.40;;;5.40;;
51523;SDS011;37610;51.790;21.590;2023-02-01T00:40:03;10.00;;;4.70;;
51523;SDS011;37610;51.790;21.590;2023-02-01T00:44:05;11.60;;;5.40;;
51523;SDS011;37610;51.790;21.590;2023-02-01T00:48:07;10.60;;;4.30;;
51523;SDS011;37610;51.790;21.590;2023-02-01T00:52:08;9.60;;;5.30;;
51523;SDS011;37610;51.790;21.590;2023-02-01T00:56:09;8.40;;;4.90;;
51523;SDS011;37610;51.790;21.590;2023-02-01T01:00:12;10.60;;;5.10;;
51523;SDS011;37610;51.790;21.590;2023-02-01T01:04:13;8.20;;;4.50;;
51523;SDS011;37610;51.790;21.590;2023-02-01T01:08:15;6.70;;;3.90;;
51523;SDS011;37610;51.790;21.590;2023-02-01T01:12:17;8.50;;;4.10;;
51523;SDS011;37610;51.790;21.590;2023-02-01T01:16:21;6.90;;;4.20;;
51523;SDS011;37610;51.790;21.590;2023-02-01T01:20:24;6.70;;;4.30;;
51523;SDS011;37610;51.790;21.590;2023-02-01T01:24:25;5.50;;;3.90;;
51523;SDS011;37610;51.790;21.590;2023-02-01T01:28:27;11.10;;;4.70;;
51523;SDS011;37610;51.790;21.590;2023-02-01T01:32:28;8.10;;;5.00;;
51523;SDS011;37610;51.790;21.590;2023-02-01T01:36:30;10.10;;;5.20;;
51523;SDS011;37610;51.790;21.590;2023-02-01T01:40:31;8.50;;;5.10;;
51523;SDS011;37610;51.790;21.590;2023-02-01T01:53:17;7.70;;;4.50;;
51523;SDS011;37610;51.790;21.590;2023-02-01T01:57:29;9.10;;;4.30;;
51523;SDS011;37610;51.790;21.590;2023-02-01T02:01:37;8.30;;;4.20;;
51523;SDS011;37610;51.790;21.590;2023-02-01T02:05:39;11.10;;;3.60;;
51523;SDS011;37610;51.790;21.590;2023-02-01T02:09:41;10.10;;;3.00;;
51523;SDS011;37610;51.790;21.590;2023-02-01T02:13:45;4.80;;;2.20;;
51523;SDS011;37610;51.790;21.590;2023-02-01T02:17:54;10.40;;;2.20;;
51523;SDS011;37610;51.790;21.590;2023-02-01T02:22:12;9.10;;;2.30;;
51523;SDS011;37610;51.790;21.590;2023-02-01T02:31:12;6.20;;;2.50;;
51523;SDS011;37610;51.790;21.590;2023-02-01T02:36:06;5.70;;;2.10;;
51523;SDS011;37610;51.790;21.590;2023-02-01T02:40:25;6.90;;;1.80;;
51523;SDS011;37610;51.790;21.590;2023-02-01T02:44:34;10.90;;;3.00;;
51523;SDS011;37610;51.790;21.590;2023-02-01T02:49:05;7.90;;;2.40;;
51523;SDS011;37610;51.790;21.590;2023-02-01T02:53:21;6.20;;;2.20;;
51523;SDS011;37610;51.790;21.590;2023-02-01T02:57:57;13.60;;;2.00;;
51523;SDS011;37610;51.790;21.590;2023-02-01T03:02:18;8.10;;;2.10;;
51523;SDS011;37610;51.790;21.590;2023-02-01T03:06:41;7.60;;;2.50;;
51523;SDS011;37610;51.790;21.590;2023-02-01T03:15:06;10.10;;;3.10;;
51523;SDS011;37610;51.790;21.590;2023-02-01T03:19:19;5.60;;;2.80;;
51523;SDS011;37610;51.790;21.590;2023-02-01T03:23:26;5.80;;;2.40;;
51523;SDS011;37610;51.790;21.590;2023-02-01T03:27:36;5.90;;;2.40;;
51523;SDS011;37610;51.790;21.590;2023-02-01T03:31:41;7.20;;;3.00;;
51523;SDS011;37610;51.790;21.590;2023-02-01T03:40:11;10.60;;;2.30;;
51523;SDS011;37610;51.790;21.590;2023-02-01T03:44:37;8.10;;;2.20;;
51523;SDS011;37610;51.790;21.590;2023-02-01T03:48:40;7.50;;;2.50;;
51523;SDS011;37610;51.790;21.590;2023-02-01T03:52:43;10.30;;;2.60;;
51523;SDS011;37610;51.790;21.590;2023-02-01T03:56:46;6.10;;;2.70;;
51523;SDS011;37610;51.790;21.590;2023-02-01T04:00:50;7.00;;;2.30;;
51523;SDS011;37610;51.790;21.590;2023-02-01T04:04:52;8.60;;;2.60;;
51523;SDS011;37610;51.790;21.590;2023-02-01T04:08:54;8.90;;;3.10;;
51523;SDS011;37610;51.790;21.590;2023-02-01T04:12:55;13.30;;;2.50;;
51523;SDS011;37610;51.790;21.590;2023-02-01T04:16:57;7.20;;;2.60;;
51523;SDS011;37610;51.790;21.590;2023-02-01T04:20:58;9.00;;;3.00;;
51523;SDS011;37610;51.790;21.590;2023-02-01T04:25:00;7.60;;;2.70;;
51523;SDS011;37610;51.790;21.590;2023-02-01T04:29:02;10.80;;;2.20;;
51523;SDS011;37610;51.790;21.590;2023-02-01T04:33:03;9.60;;;2.60;;
51523;SDS011;37610;51.790;21.590;2023-02-01T04:37:08;6.60;;;2.10;;
51523;SDS011;37610;51.790;21.590;2023-02-01T04:41:10;8.70;;;2.30;;
51523;SDS011;37610;51.790;21.590;2023-02-01T04:45:11;12.80;;;2.70;;
51523;SDS011;37610;51.790;21.590;2023-02-01T04:49:13;9.00;;;2.90;;
51523;SDS011;37610;51.790;21.590;2023-02-01T04:53:15;6.60;;;2.50;;
51523;SDS011;37610;51.790;21.590;2023-02-01T04:57:17;7.40;;;2.40;;
51523;SDS011;37610;51.790;21.590;2023-02-01T05:01:19;11.40;;;2.80;;
51523;SDS011;37610;51.790;21.590;2023-02-01T05:05:20;14.20;;;4.20;;
51523;SDS011;37610;51.790;21.590;2023-02-01T05:09:22;11.60;;;2.60;;
51523;SDS011;37610;51.790;21.590;2023-02-01T05:13:23;14.10;;;3.70;;
51523;SDS011;37610;51.790;21.590;2023-02-01T05:17:43;17.80;;;6.00;;
51523;SDS011;37610;51.790;21.590;2023-02-01T05:21:45;12.30;;;3.90;;
51523;SDS011;37610;51.790;21.590;2023-02-01T05:25:46;5.50;;;2.70;;
51523;SDS011;37610;51.790;21.590;2023-02-01T05:29:48;9.40;;;3.40;;
51523;SDS011;37610;51.790;21.590;2023-02-01T05:33:49;11.70;;;3.10;;
51523;SDS011;37610;51.790;21.590;2023-02-01T05:37:51;12.60;;;2.90;;
51523;SDS011;37610;51.790;21.590;2023-02-01T05:41:53;17.80;;;4.50;;
51523;SDS011;37610;51.790;21.590;2023-02-01T05:45:54;15.60;;;4.40;;
51523;SDS011;37610;51.790;21.590;2023-02-01T05:49:55;14.40;;;3.90;;
51523;SDS011;37610;51.790;21.590;2023-02-01T05:53:57;11.00;;;4.20;;
51523;SDS011;37610;51.790;21.590;2023-02-01T05:57:58;15.70;;;3.40;;
51523;SDS011;37610;51.790;21.590;2023-02-01T06:02:00;13.10;;;3.00;;
51523;SDS011;37610;51.790;21.590;2023-02-01T06:06:02;12.50;;;2.80;;
51523;SDS011;37610;51.790;21.590;2023-02-01T06:10:03;9.50;;;3.00;;
51523;SDS011;37610;51.790;21.590;2023-02-01T06:14:05;8.60;;;3.00;;
51523;SDS011;37610;51.790;21.590;2023-02-01T06:18:09;9.70;;;3.00;;
51523;SDS011;37610;51.790;21.590;2023-02-01T06:22:11;16.80;;;3.80;;
51523;SDS011;37610;51.790;21.590;2023-02-01T06:26:12;8.00;;;2.80;;
51523;SDS011;37610;51.790;21.590;2023-02-01T06:30:13;12.60;;;3.10;;
51523;SDS011;37610;51.790;21.590;2023-02-01T06:34:15;14.20;;;3.50;;
51523;SDS011;37610;51.790;21.590;2023-02-01T06:38:17;9.50;;;3.00;;
51523;SDS011;37610;51.790;21.590;2023-02-01T06:42:19;10.50;;;2.80;;
51523;SDS011;37610;51.790;21.590;2023-02-01T06:46:21;9.80;;;3.20;;
51523;SDS011;37610;51.790;21.590;2023-02-01T06:50:22;8.40;;;2.40;;
51523;SDS011;37610;51.790;21.590;2023-02-01T06:54:24;25.70;;;4.40;;
51523;SDS011;37610;51.790;21.590;2023-02-01T06:58:29;14.00;;;5.70;;
51523;SDS011;37610;51.790;21.590;2023-02-01T07:02:34;9.90;;;4.30;;
51523;SDS011;37610;51.790;21.590;2023-02-01T07:06:36;16.50;;;5.10;;
51523;SDS011;37610;51.790;21.590;2023-02-01T07:10:37;11.20;;;4.00;;
51523;SDS011;37610;51.790;21.590;2023-02-01T07:14:39;7.80;;;2.60;;
51523;SDS011;37610;51.790;21.590;2023-02-01T07:18:40;14.50;;;5.40;;
51523;SDS011;37610;51.790;21.590;2023-02-01T07:22:42;17.10;;;5.80;;
51523;SDS011;37610;51.790;21.590;2023-02-01T07:26:43;14.80;;;5.20;;
51523;SDS011;37610;51.790;21.590;2023-02-01T07:30:45;13.10;;;3.70;;
51523;SDS011;37610;51.790;21.590;2023-02-01T07:34:51;12.60;;;4.00;;
51523;SDS011;37610;51.790;21.590;2023-02-01T07:38:53;12.40;;;3.40;;
51523;SDS011;37610;51.790;21.590;2023-02-01T07:42:55;17.00;;;5.30;;
51523;SDS011;37610;51.790;21.590;2023-02-01T07:46:56;8.90;;;3.90;;
51523;SDS011;37610;51.790;21.590;2023-02-01T07:55:00;40.40;;;13.60;;
51523;SDS011;37610;51.790;21.590;2023-02-01T07:59:02;23.60;;;9.40;;
51523;SDS011;37610;51.790;21.590;2023-02-01T08:03:04;18.70;;;6.90;;
51523;SDS011;37610;51.790;21.590;2023-02-01T08:07:06;16.80;;;6.60;;
51523;SDS011;37610;51.790;21.590;2023-02-01T08:11:07;18.50;;;6.60;;
51523;SDS011;37610;51.790;21.590;2023-02-01T08:15:09;13.50;;;4.80;;
51523;SDS011;37610;51.790;21.590;2023-02-01T08:19:11;13.30;;;4.70;;
51523;SDS011;37610;51.790;21.590;2023-02-01T08:23:12;40.50;;;11.50;;
51523;SDS011;37610;51.790;21.590;2023-02-01T08:27:14;18.60;;;5.70;;
51523;SDS011;37610;51.790;21.590;2023-02-01T08:31:17;12.90;;;3.80;;
51523;SDS011;37610;51.790;21.590;2023-02-01T08:35:20;12.20;;;3.20;;
51523;SDS011;37610;51.790;21.590;2023-02-01T08:39:22;9.20;;;3.40;;
51523;SDS011;37610;51.790;21.590;2023-02-01T08:43:23;13.50;;;4.00;;
51523;SDS011;37610;51.790;21.590;2023-02-01T08:47:25;13.40;;;4.20;;
51523;SDS011;37610;51.790;21.590;2023-02-01T08:51:27;18.80;;;5.60;;
51523;SDS011;37610;51.790;21.590;2023-02-01T08:55:28;19.20;;;5.30;;
51523;SDS011;37610;51.790;21.590;2023-02-01T08:59:30;16.00;;;4.80;;
51523;SDS011;37610;51.790;21.590;2023-02-01T09:03:31;20.30;;;4.30;;
51523;SDS011;37610;51.790;21.590;2023-02-01T09:07:33;13.10;;;3.70;;
51523;SDS011;37610;51.790;21.590;2023-02-01T09:11:35;15.50;;;4.10;;
51523;SDS011;37610;51.790;21.590;2023-02-01T09:15:37;22.10;;;5.60;;
51523;SDS011;37610;51.790;21.590;2023-02-01T09:19:39;19.80;;;5.00;;
51523;SDS011;37610;51.790;21.590;2023-02-01T09:23:41;26.10;;;7.20;;
51523;SDS011;37610;51.790;21.590;2023-02-01T09:27:42;24.90;;;7.20;;
51523;SDS011;37610;51.790;21.590;2023-02-01T09:31:44;21.90;;;5.90;;
51523;SDS011;37610;51.790;21.590;2023-02-01T09:35:45;16.90;;;7.10;;
51523;SDS011;37610;51.790;21.590;2023-02-01T09:39:47;24.80;;;6.80;;
51523;SDS011;37610;51.790;21.590;2023-02-01T09:43:57;21.10;;;5.40;;
51523;SDS011;37610;51.790;21.590;2023-02-01T09:48:11;28.00;;;7.70;;
51523;SDS011;37610;51.790;21.590;2023-02-01T09:52:19;19.40;;;5.00;;
51523;SDS011;37610;51.790;21.590;2023-02-01T09:56:39;18.80;;;6.10;;
51523;SDS011;37610;51.790;21.590;2023-02-01T10:00:45;21.20;;;4.60;;
51523;SDS011;37610;51.790;21.590;2023-02-01T10:04:55;20.30;;;5.40;;
51523;SDS011;37610;51.790;21.590;2023-02-01T10:22:08;15.30;;;3.80;;
51523;SDS011;37610;51.790;21.590;2023-02-01T10:26:20;23.90;;;4.60;;
51523;SDS011;37610;51.790;21.590;2023-02-01T10:30:24;19.60;;;5.20;;
51523;SDS011;37610;51.790;21.590;2023-02-01T10:34:33;17.60;;;4.60;;
51523;SDS011;37610;51.790;21.590;2023-02-01T10:38:36;14.30;;;4.40;;
51523;SDS011;37610;51.790;21.590;2023-02-01T10:42:38;17.30;;;4.20;;
51523;SDS011;37610;51.790;21.590;2023-02-01T10:46:41;13.90;;;4.40;;
51523;SDS011;37610;51.790;21.590;2023-02-01T10:50:58;11.50;;;4.10;;
51523;SDS011;37610;51.790;21.590;2023-02-01T10:59:39;8.80;;;3.40;;
51523;SDS011;37610;51.790;21.590;2023-02-01T11:03:41;17.70;;;4.80;;
51523;SDS011;37610;51.790;21.590;2023-02-01T11:07:46;11.20;;;3.50;;
51523;SDS011;37610;51.790;21.590;2023-02-01T11:15:54;16.80;;;5.30;;
51523;SDS011;37610;51.790;21.590;2023-02-01T11:20:01;9.50;;;3.60;;
51523;SDS011;37610;51.790;21.590;2023-02-01T11:24:20;18.20;;;5.20;;
51523;SDS011;37610;51.790;21.590;2023-02-01T11:28:25;15.30;;;5.10;;
51523;SDS011;37610;51.790;21.590;2023-02-01T11:32:30;14.70;;;4.40;;
51523;SDS011;37610;51.790;21.590;2023-02-01T11:36:32;22.90;;;5.60;;
51523;SDS011;37610;51.790;21.590;2023-02-01T11:40:37;16.40;;;4.40;;
51523;SDS011;37610;51.790;21.590;2023-02-01T11:44:43;14.70;;;4.80;;
51523;SDS011;37610;51.790;21.590;2023-02-01T11:48:46;17.50;;;6.20;;
51523;SDS011;37610;51.790;21.590;2023-02-01T12:19:02;15.40;;;5.70;;
51523;SDS011;37610;51.790;21.590;2023-02-01T12:23:14;19.90;;;7.30;;
51523;SDS011;37610;51.790;21.590;2023-02-01T12:45:14;21.00;;;6.50;;
51523;SDS011;37610;51.790;21.590;2023-02-01T12:57:46;14.00;;;5.00;;
51523;SDS011;37610;51.790;21.590;2023-02-01T13:06:19;17.50;;;4.90;;
51523;SDS011;37610;51.790;21.590;2023-02-01T13:14:43;18.40;;;6.40;;
51523;SDS011;37610;51.790;21.590;2023-02-01T13:18:49;60.10;;;21.50;;
51523;SDS011;37610;51.790;21.590;2023-02-01T13:23:03;24.00;;;7.40;;
51523;SDS011;37610;51.790;21.590;2023-02-01T13:27:11;34.60;;;11.60;;
51523;SDS011;37610;51.790;21.590;2023-02-01T13:44:25;31.00;;;11.90;;
51523;SDS011;37610;51.790;21.590;2023-02-01T13:48:45;24.50;;;8.00;;
51523;SDS011;37610;51.790;21.590;2023-02-01T13:57:34;27.00;;;10.70;;
51523;SDS011;37610;51.790;21.590;2023-02-01T14:01:38;28.70;;;14.60;;
51523;SDS011;37610;51.790;21.590;2023-02-01T14:09:41;24.60;;;10.10;;
51523;SDS011;37610;51.790;21.590;2023-02-01T14:13:43;31.50;;;11.30;;
51523;SDS011;37610;51.790;21.590;2023-02-01T14:17:46;38.10;;;14.20;;
51523;SDS011;37610;51.790;21.590;2023-02-01T14:21:49;29.70;;;14.20;;
51523;SDS011;37610;51.790;21.590;2023-02-01T14:26:02;26.60;;;7.80;;
51523;SDS011;37610;51.790;21.590;2023-02-01T14:30:07;23.20;;;8.20;;
51523;SDS011;37610;51.790;21.590;2023-02-01T14:38:19;24.60;;;11.10;;
51523;SDS011;37610;51.790;21.590;2023-02-01T14:51:06;8.50;;;2.70;;
51523;SDS011;37610;51.790;21.590;2023-02-01T14:55:24;7.00;;;2.50;;
51523;SDS011;37610;51.790;21.590;2023-02-01T14:59:47;9.00;;;3.00;;
51523;SDS011;37610;51.790;21.590;2023-02-01T15:08:13;11.90;;;3.60;;
51523;SDS011;37610;51.790;21.590;2023-02-01T15:12:23;11.20;;;4.40;;
51523;SDS011;37610;51.790;21.590;2023-02-01T15:16:32;13.60;;;5.10;;
51523;SDS011;37610;51.790;21.590;2023-02-01T15:20:34;15.30;;;6.10;;
51523;SDS011;37610;51.790;21.590;2023-02-01T15:24:35;10.10;;;4.60;;
51523;SDS011;37610;51.790;21.590;2023-02-01T15:28:37;14.50;;;6.50;;
51523;SDS011;37610;51.790;21.590;2023-02-01T15:32:39;14.00;;;4.90;;
51523;SDS011;37610;51.790;21.590;2023-02-01T15:36:41;14.10;;;5.50;;
51523;SDS011;37610;51.790;21.590;2023-02-01T15:45:12;11.60;;;5.10;;
51523;SDS011;37610;51.790;21.590;2023-02-01T15:49:20;11.00;;;4.00;;
51523;SDS011;37610;51.790;21.590;2023-02-01T15:53:27;15.00;;;6.20;;
51523;SDS011;37610;51.790;21.590;2023-02-01T15:57:35;12.20;;;5.00;;
51523;SDS011;37610;51.790;21.590;2023-02-01T16:01:40;16.10;;;6.90;;
51523;SDS011;37610;51.790;21.590;2023-02-01T16:05:42;17.00;;;7.00;;
51523;SDS011;37610;51.790;21.590;2023-02-01T16:09:51;12.30;;;6.00;;
51523;SDS011;37610;51.790;21.590;2023-02-01T16:13:59;18.50;;;7.30;;
51523;SDS011;37610;51.790;21.590;2023-02-01T16:18:01;20.10;;;8.10;;
51523;SDS011;37610;51.790;21.590;2023-02-01T16:22:03;15.30;;;6.70;;
51523;SDS011;37610;51.790;21.590;2023-02-01T16:26:04;16.60;;;7.20;;
51523;SDS011;37610;51.790;21.590;2023-02-01T16:30:07;18.70;;;7.60;;
51523;SDS011;37610;51.790;21.590;2023-02-01T16:34:14;14.70;;;6.60;;
51523;SDS011;37610;51.790;21.590;2023-02-01T16:38:20;15.00;;;6.70;;
51523;SDS011;37610;51.790;21.590;2023-02-01T16:42:23;18.40;;;8.90;;
51523;SDS011;37610;51.790;21.590;2023-02-01T16:46:25;14.20;;;6.10;;
51523;SDS011;37610;51.790;21.590;2023-02-01T16:50:31;15.60;;;7.00;;
51523;SDS011;37610;51.790;21.590;2023-02-01T16:54:34;19.00;;;8.30;;
51523;SDS011;37610;51.790;21.590;2023-02-01T16:58:36;18.70;;;7.50;;
51523;SDS011;37610;51.790;21.590;2023-02-01T17:02:37;17.90;;;7.40;;
51523;SDS011;37610;51.790;21.590;2023-02-01T17:06:40;11.60;;;6.50;;
51523;SDS011;37610;51.790;21.590;2023-02-01T17:10:42;14.90;;;7.00;;
51523;SDS011;37610;51.790;21.590;2023-02-01T17:14:44;16.40;;;7.00;;
51523;SDS011;37610;51.790;21.590;2023-02-01T17:18:53;27.70;;;12.10;;
51523;SDS011;37610;51.790;21.590;2023-02-01T17:23:00;26.60;;;11.00;;
51523;SDS011;37610;51.790;21.590;2023-02-01T17:27:02;23.00;;;12.50;;
51523;SDS011;37610;51.790;21.590;2023-02-01T17:31:08;10.90;;;6.30;;
51523;SDS011;37610;51.790;21.590;2023-02-01T17:35:19;20.50;;;11.50;;
51523;SDS011;37610;51.790;21.590;2023-02-01T17:39:23;14.70;;;8.30;;
51523;SDS011;37610;51.790;21.590;2023-02-01T17:43:43;23.60;;;11.00;;
51523;SDS011;37610;51.790;21.590;2023-02-01T17:47:44;30.70;;;15.50;;
51523;SDS011;37610;51.790;21.590;2023-02-01T17:51:48;32.90;;;16.30;;
51523;SDS011;37610;51.790;21.590;2023-02-01T17:55:50;25.20;;;12.80;;
51523;SDS011;37610;51.790;21.590;2023-02-01T17:59:53;27.40;;;12.40;;
51523;SDS011;37610;51.790;21.590;2023-02-01T18:03:54;25.40;;;11.20;;
51523;SDS011;37610;51.790;21.590;2023-02-01T18:07:56;23.20;;;11.60;;
51523;SDS011;37610;51.790;21.590;2023-02-01T18:11:58;14.90;;;8.20;;
51523;SDS011;37610;51.790;21.590;2023-02-01T18:15:59;18.30;;;8.90;;
51523;SDS011;37610;51.790;21.590;2023-02-01T18:20:02;18.50;;;10.00;;
51523;SDS011;37610;51.790;21.590;2023-02-01T18:24:04;15.00;;;6.40;;
51523;SDS011;37610;51.790;21.590;2023-02-01T18:28:06;17.00;;;8.10;;
51523;SDS011;37610;51.790;21.590;2023-02-01T18:32:08;11.40;;;6.60;;
51523;SDS011;37610;51.790;21.590;2023-02-01T18:40:16;17.90;;;7.10;;
51523;SDS011;37610;51.790;21.590;2023-02-01T18:44:20;15.00;;;7.70;;
51523;SDS011;37610;51.790;21.590;2023-02-01T18:48:21;15.10;;;8.00;;
51523;SDS011;37610;51.790;21.590;2023-02-01T18:52:23;18.50;;;8.70;;
51523;SDS011;37610;51.790;21.590;2023-02-01T18:56:24;18.40;;;8.50;;
51523;SDS011;37610;51.790;21.590;2023-02-01T19:00:26;21.50;;;8.70;;
51523;SDS011;37610;51.790;21.590;2023-02-01T19:04:29;21.70;;;8.10;;
51523;SDS011;37610;51.790;21.590;2023-02-01T19:08:30;18.10;;;10.30;;
51523;SDS011;37610;51.790;21.590;2023-02-01T19:12:32;17.00;;;10.00;;
51523;SDS011;37610;51.790;21.590;2023-02-01T19:16:34;24.80;;;12.10;;
51523;SDS011;37610;51.790;21.590;2023-02-01T19:20:39;27.30;;;13.10;;
51523;SDS011;37610;51.790;21.590;2023-02-01T19:24:45;32.60;;;16.50;;
51523;SDS011;37610;51.790;21.590;2023-02-01T19:28:46;26.00;;;9.90;;
51523;SDS011;37610;51.790;21.590;2023-02-01T19:32:49;27.90;;;10.90;;
51523;SDS011;37610;51.790;21.590;2023-02-01T19:36:51;25.80;;;11.00;;
51523;SDS011;37610;51.790;21.590;2023-02-01T19:40:54;25.20;;;9.80;;
51523;SDS011;37610;51.790;21.590;2023-02-01T19:44:55;20.90;;;10.10;;
51523;SDS011;37610;51.790;21.590;2023-02-01T19:48:57;20.70;;;10.20;;
51523;SDS011;37610;51.790;21.590;2023-02-01T19:52:58;21.50;;;10.70;;
51523;SDS011;37610;51.790;21.590;2023-02-01T19:57:00;17.40;;;8.20;;
51523;SDS011;37610;51.790;21.590;2023-02-01T20:01:02;26.50;;;9.60;;
51523;SDS011;37610;51.790;21.590;2023-02-01T20:05:03;22.20;;;9.90;;
51523;SDS011;37610;51.790;21.590;2023-02-01T20:09:05;15.70;;;7.20;;
51523;SDS011;37610;51.790;21.590;2023-02-01T20:13:07;13.80;;;7.10;;
51523;SDS011;37610;51.790;21.590;2023-02-01T20:17:09;19.50;;;7.60;;
51523;SDS011;37610;51.790;21.590;2023-02-01T20:21:16;19.70;;;7.60;;
51523;SDS011;37610;51.790;21.590;2023-02-01T20:25:19;20.30;;;9.90;;
51523;SDS011;37610;51.790;21.590;2023-02-01T20:29:20;39.90;;;16.90;;
51523;SDS011;37610;51.790;21.590;2023-02-01T20:33:23;29.20;;;13.90;;
51523;SDS011;37610;51.790;21.590;2023-02-01T20:37:27;21.50;;;9.40;;
51523;SDS011;37610;51.790;21.590;2023-02-01T20:41:29;22.00;;;10.00;;
51523;SDS011;37610;51.790;21.590;2023-02-01T20:45:30;24.50;;;12.50;;
51523;SDS011;37610;51.790;21.590;2023-02-01T20:49:32;30.00;;;13.30;;
51523;SDS011;37610;51.790;21.590;2023-02-01T20:53:34;31.40;;;11.90;;
51523;SDS011;37610;51.790;21.590;2023-02-01T20:57:36;25.00;;;8.80;;
51523;SDS011;37610;51.790;21.590;2023-02-01T21:01:37;25.70;;;9.00;;
51523;SDS011;37610;51.790;21.590;2023-02-01T21:05:54;19.70;;;7.70;;
51523;SDS011;37610;51.790;21.590;2023-02-01T21:09:58;31.40;;;12.10;;
51523;SDS011;37610;51.790;21.590;2023-02-01T21:14:00;29.20;;;11.90;;
51523;SDS011;37610;51.790;21.590;2023-02-01T21:18:04;20.80;;;9.80;;
51523;SDS011;37610;51.790;21.590;2023-02-01T21:22:07;21.10;;;9.50;;
51523;SDS011;37610;51.790;21.590;2023-02-01T21:26:10;15.20;;;7.20;;
51523;SDS011;37610;51.790;21.590;2023-02-01T21:30:13;28.20;;;11.90;;
51523;SDS011;37610;51.790;21.590;2023-02-01T21:34:15;18.30;;;8.60;;
51523;SDS011;37610;51.790;21.590;2023-02-01T21:38:16;29.30;;;10.90;;
51523;SDS011;37610;51.790;21.590;2023-02-01T21:42:18;27.70;;;11.70;;
51523;SDS011;37610;51.790;21.590;2023-02-01T21:46:22;28.90;;;10.60;;
51523;SDS011;37610;51.790;21.590;2023-02-01T21:50:23;23.00;;;8.00;;
51523;SDS011;37610;51.790;21.590;2023-02-01T21:54:24;28.80;;;11.00;;
51523;SDS011;37610;51.790;21.590;2023-02-01T21:58:26;28.70;;;10.00;;
51523;SDS011;37610;51.790;21.590;2023-02-01T22:02:27;12.30;;;5.90;;
51523;SDS011;37610;51.790;21.590;2023-02-01T22:06:30;26.80;;;8.70;;
51523;SDS011;37610;51.790;21.590;2023-02-01T22:10:33;42.80;;;11.90;;
51523;SDS011;37610;51.790;21.590;2023-02-01T22:14:35;37.80;;;9.30;;
51523;SDS011;37610;51.790;21.590;2023-02-01T22:18:36;20.10;;;7.60;;
51523;SDS011;37610;51.790;21.590;2023-02-01T22:22:38;43.90;;;13.10;;
51523;SDS011;37610;51.790;21.590;2023-02-01T22:26:39;21.00;;;7.30;;
51523;SDS011;37610;51.790;21.590;2023-02-01T22:30:42;25.60;;;9.10;;
51523;SDS011;37610;51.790;21.590;2023-02-01T22:34:43;17.00;;;7.60;;
51523;SDS011;37610;51.790;21.590;2023-02-01T22:38:45;20.00;;;6.60;;
51523;SDS011;37610;51.790;21.590;2023-02-01T22:46:51;25.70;;;7.80;;
51523;SDS011;37610;51.790;21.590;2023-02-01T22:50:59;19.70;;;7.10;;
51523;SDS011;37610;51.790;21.590;2023-02-01T22:55:01;35.90;;;11.60;;
51523;SDS011;37610;51.790;21.590;2023-02-01T22:59:08;39.60;;;11.20;;
51523;SDS011;37610;51.790;21.590;2023-02-01T23:03:11;18.00;;;7.40;;
51523;SDS011;37610;51.790;21.590;2023-02-01T23:07:13;26.10;;;8.20;;
51523;SDS011;37610;51.790;21.590;2023-02-01T23:11:14;27.60;;;9.30;;
51523;SDS011;37610;51.790;21.590;2023-02-01T23:15:16;19.80;;;8.80;;
51523;SDS011;37610;51.790;21.590;2023-02-01T23:19:18;15.30;;;6.20;;
51523;SDS011;37610;51.790;21.590;2023-02-01T23:23:20;12.40;;;6.00;;
51523;SDS011;37610;51.790;21.590;2023-02-01T23:27:22;12.70;;;5.60;;
51523;SDS011;37610;51.790;21.590;2023-02-01T23:31:25;14.60;;;5.50;;
51523;SDS011;37610;51.790;21.590;2023-02-01T23:35:30;13.30;;;5.60;;
51523;SDS011;37610;51.790;21.590;2023-02-01T23:39:32;10.90;;;5.10;;
51523;SDS011;37610;51.790;21.590;2023-02-01T23:43:33;7.40;;;4.20;;
51523;SDS011;37610;51.790;21.590;2023-02-01T23:47:54;11.00;;;5.20;;
51523;SDS011;37610;51.790;21.590;2023-02-01T23:51:55;21.30;;;6.30;;
51523;SDS011;37610;51.790;21.590;2023-02-01T23:55:57;19.20;;;7.10;;
51523;SDS011;37610;51.790;21.590;2023-02-01T23:59:58;25.40;;;8.40;;
